createdAt,value
2023-03-11T00:00:31.117Z,0.35
2023-03-11T00:03:53.918Z,0.62
2023-03-11T00:06:57.189Z,0.40
2023-03-11T00:10:00.657Z,0.57
2023-03-11T00:13:05.517Z,0.40
2023-03-11T00:16:08.382Z,0.25
2023-03-11T00:19:11.275Z,0.50
2023-03-11T00:22:14.078Z,0.50
2023-03-11T00:25:17.399Z,0.30
2023-03-11T00:31:26.623Z,0.60
2023-03-11T00:34:29.603Z,0.52
2023-03-11T00:37:32.483Z,0.32
2023-03-11T00:43:39.066Z,0.50
2023-03-11T00:46:41.912Z,0.50
2023-03-11T00:49:44.855Z,0.43
2023-03-11T00:52:49.730Z,0.50
2023-03-11T00:55:52.559Z,0.43
2023-03-11T00:58:55.462Z,0.50
2023-03-11T01:01:58.490Z,0.60
2023-03-11T01:05:01.383Z,0.60
2023-03-11T01:08:04.594Z,0.60
2023-03-11T01:11:08.194Z,0.40
2023-03-11T01:14:11.013Z,0.47
2023-03-11T01:17:13.950Z,0.60
2023-03-11T01:20:18.442Z,0.50
2023-03-11T01:23:21.822Z,0.50
2023-03-11T01:26:24.663Z,0.70
2023-03-11T01:29:31.448Z,0.80
2023-03-11T01:32:34.527Z,0.80
2023-03-11T01:35:40.000Z,0.70
2023-03-11T01:38:42.901Z,0.65
2023-03-11T01:41:45.766Z,0.77
2023-03-11T01:44:48.755Z,0.80
2023-03-11T01:50:56.223Z,0.70
2023-03-11T01:54:04.233Z,0.65
2023-03-11T01:57:12.408Z,0.55
2023-03-11T02:00:16.212Z,0.70
2023-03-11T02:03:33.041Z,0.82
2023-03-11T02:06:36.224Z,0.82
2023-03-11T02:09:39.795Z,0.68
2023-03-11T02:12:43.244Z,0.80
2023-03-11T02:15:47.083Z,0.62
2023-03-11T02:21:52.885Z,0.93
2023-03-11T02:25:19.465Z,0.60
2023-03-11T02:28:23.288Z,0.60
2023-03-11T02:31:26.958Z,0.80
2023-03-11T02:34:33.529Z,0.62
2023-03-11T02:37:37.067Z,0.60
2023-03-11T02:40:44.681Z,0.77
2023-03-11T02:43:49.711Z,0.77
2023-03-11T02:46:53.509Z,0.57
2023-03-11T02:49:57.560Z,0.70
2023-03-11T02:53:00.585Z,1.05
2023-03-11T02:56:03.661Z,0.60
2023-03-11T02:59:06.585Z,0.60
2023-03-11T03:02:09.785Z,0.80
2023-03-11T03:05:14.375Z,0.60
2023-03-11T03:08:17.459Z,0.80
2023-03-11T03:11:20.666Z,0.80
2023-03-11T03:14:24.257Z,0.62
2023-03-11T03:17:27.416Z,0.68
2023-03-11T03:20:30.456Z,0.93
2023-03-11T03:23:35.356Z,0.75
2023-03-11T03:26:38.913Z,0.70
2023-03-11T03:29:42.303Z,0.80
2023-03-11T03:32:45.327Z,1.00
2023-03-11T03:35:48.886Z,0.80
2023-03-11T03:38:56.855Z,0.60
2023-03-11T03:42:01.920Z,0.60
2023-03-11T03:45:08.208Z,0.60
2023-03-11T03:48:11.230Z,0.60
2023-03-11T03:54:18.419Z,0.60
2023-03-11T03:57:21.360Z,0.60
2023-03-11T04:00:24.860Z,0.40
2023-03-11T04:03:28.688Z,0.77
2023-03-11T04:06:32.436Z,0.52
2023-03-11T04:09:38.471Z,0.50
2023-03-11T04:12:41.920Z,0.50
2023-03-11T04:15:45.094Z,0.80
2023-03-11T04:18:48.470Z,0.82
2023-03-11T04:21:52.850Z,0.50
2023-03-11T04:24:55.926Z,0.65
2023-03-11T04:27:59.048Z,0.68
2023-03-11T04:31:02.221Z,0.75
2023-03-11T04:34:06.818Z,0.50
2023-03-11T04:37:11.072Z,0.80
2023-03-11T04:40:15.115Z,0.80
2023-03-11T04:43:18.394Z,0.80
2023-03-11T04:46:21.939Z,0.98
2023-03-11T04:49:25.099Z,1.45
2023-03-11T04:52:28.359Z,1.45
2023-03-11T04:55:31.491Z,1.70
2023-03-11T04:58:34.626Z,1.95
2023-03-11T05:01:37.971Z,2.70
2023-03-11T05:04:41.281Z,2.12
2023-03-11T05:07:44.281Z,3.03
2023-03-11T05:10:48.042Z,2.50
2023-03-11T05:13:51.354Z,3.05
2023-03-11T05:19:57.659Z,1.98
2023-03-11T05:29:09.019Z,1.75
2023-03-11T05:32:12.755Z,1.45
2023-03-11T05:35:17.049Z,1.10
2023-03-11T05:38:19.982Z,1.95
2023-03-11T05:44:26.683Z,1.02
2023-03-11T05:47:31.661Z,1.20
2023-03-11T05:50:34.620Z,0.68
2023-03-11T05:53:39.270Z,0.80
2023-03-11T05:56:44.021Z,1.27
2023-03-11T05:59:47.145Z,1.25
2023-03-11T06:02:50.369Z,1.30
2023-03-11T06:05:53.750Z,1.73
2023-03-11T06:08:57.040Z,0.88
2023-03-11T06:12:00.350Z,1.02
2023-03-11T06:15:09.251Z,0.95
2023-03-11T06:18:12.446Z,4.07
2023-03-11T06:21:18.773Z,1.20
2023-03-11T06:24:22.031Z,0.90
2023-03-11T06:27:25.306Z,1.00
2023-03-11T06:30:28.969Z,1.27
2023-03-11T06:36:35.126Z,1.17
2023-03-11T06:39:37.930Z,1.30
2023-03-11T06:42:41.087Z,2.17
2023-03-11T06:45:45.716Z,1.73
2023-03-11T06:48:52.336Z,1.50
2023-03-11T06:51:55.758Z,1.67
2023-03-11T06:54:59.732Z,2.75
2023-03-11T07:01:24.354Z,3.10
2023-03-11T07:04:27.623Z,2.80
2023-03-11T07:07:30.598Z,1.40
2023-03-11T07:10:34.358Z,1.50
2023-03-11T07:13:37.448Z,1.17
2023-03-11T07:16:40.871Z,0.93
2023-03-11T07:19:44.143Z,0.95
2023-03-11T07:22:46.978Z,0.95
2023-03-11T07:25:51.766Z,1.80
2023-03-11T07:28:56.026Z,3.28
2023-03-11T07:31:58.929Z,1.10
2023-03-11T07:35:01.993Z,0.82
2023-03-11T07:38:04.905Z,0.90
2023-03-11T07:41:08.308Z,1.05
2023-03-11T07:44:15.807Z,0.98
2023-03-11T07:47:18.790Z,1.15
2023-03-11T07:50:22.424Z,0.90
2023-03-11T07:53:25.235Z,1.00
2023-03-11T07:56:31.131Z,1.10
2023-03-11T07:59:34.046Z,1.08
2023-03-11T08:02:36.978Z,1.30
2023-03-11T08:05:40.232Z,1.00
2023-03-11T08:08:43.506Z,1.10
2023-03-11T08:11:48.772Z,1.00
2023-03-11T08:14:52.180Z,0.90
2023-03-11T08:17:55.306Z,1.02
2023-03-11T08:20:58.408Z,1.00
2023-03-11T08:24:02.631Z,0.90
2023-03-11T08:27:05.779Z,0.88
2023-03-11T08:33:11.577Z,0.80
2023-03-11T08:36:14.684Z,1.00
2023-03-11T08:39:17.289Z,1.02
2023-03-11T08:42:21.320Z,2.25
2023-03-11T08:45:24.106Z,0.90
2023-03-11T08:48:27.421Z,0.80
2023-03-11T08:51:32.119Z,0.85
2023-03-11T08:54:35.232Z,0.90
2023-03-11T08:57:38.450Z,0.80
2023-03-11T09:00:41.605Z,4.37
2023-03-11T09:03:44.112Z,0.80
2023-03-11T09:06:48.993Z,1.00
2023-03-11T09:09:51.512Z,0.82
2023-03-11T09:12:54.621Z,0.90
2023-03-11T09:15:57.474Z,0.70
2023-03-11T09:19:03.636Z,0.77
2023-03-11T09:22:06.338Z,0.88
2023-03-11T09:25:12.327Z,0.80
2023-03-11T09:28:14.877Z,0.88
2023-03-11T09:31:19.041Z,0.88
2023-03-11T09:34:22.154Z,0.70
2023-03-11T09:37:25.568Z,0.80
2023-03-11T09:40:49.362Z,0.70
2023-03-11T09:44:10.723Z,0.75
2023-03-11T09:47:51.034Z,0.80
2023-03-11T09:51:02.743Z,0.88
2023-03-11T09:54:13.089Z,0.80
2023-03-11T09:57:22.283Z,0.98
2023-03-11T10:00:25.493Z,0.80
2023-03-11T10:03:34.735Z,1.60
2023-03-11T10:06:39.765Z,0.85
2023-03-11T10:09:56.941Z,1.05
2023-03-11T10:13:10.895Z,0.90
2023-03-11T10:16:25.021Z,1.45
2023-03-11T10:23:11.035Z,0.77
2023-03-11T10:26:14.215Z,1.08
2023-03-11T10:29:32.017Z,1.05
2023-03-11T10:32:47.687Z,0.95
2023-03-11T10:35:57.442Z,1.27
2023-03-11T10:39:01.178Z,1.55
2023-03-11T10:42:06.359Z,1.02
2023-03-11T10:45:14.438Z,1.10
2023-03-11T10:48:19.371Z,0.95
2023-03-11T10:51:24.332Z,0.90
2023-03-11T10:54:35.585Z,1.20
2023-03-11T10:57:38.944Z,1.70
2023-03-11T11:00:42.143Z,1.00
2023-03-11T11:03:50.419Z,0.85
2023-03-11T11:06:53.688Z,1.15
2023-03-11T11:10:18.392Z,0.90
2023-03-11T11:13:24.082Z,1.23
2023-03-11T11:16:28.433Z,3.90
2023-03-11T11:19:31.727Z,1.30
2023-03-11T11:22:34.386Z,1.10
2023-03-11T11:28:41.119Z,1.00
2023-03-11T11:31:46.568Z,0.88
2023-03-11T11:34:59.980Z,0.93
2023-03-11T11:38:04.346Z,1.20
2023-03-11T11:41:09.624Z,1.25
2023-03-11T11:44:19.514Z,1.20
2023-03-11T11:47:28.673Z,1.00
2023-03-11T11:50:42.100Z,1.00
2023-03-11T11:54:09.259Z,1.20
2023-03-11T11:57:15.325Z,1.27
2023-03-11T12:00:21.162Z,1.10
2023-03-11T12:04:12.966Z,1.30
2023-03-11T12:07:29.971Z,1.12
2023-03-11T12:10:42.077Z,1.05
2023-03-11T12:14:07.495Z,1.33
2023-03-11T12:17:13.871Z,1.15
2023-03-11T12:20:28.014Z,1.08
2023-03-11T12:23:40.189Z,4.30
2023-03-11T12:26:46.767Z,1.10
2023-03-11T12:29:54.651Z,1.60
2023-03-11T12:33:05.192Z,1.40
2023-03-11T12:36:32.032Z,1.30
2023-03-11T12:39:35.055Z,15.05
2023-03-11T12:42:41.404Z,1.83
2023-03-11T12:46:04.478Z,1.17
2023-03-11T12:49:14.140Z,1.40
2023-03-11T12:52:26.470Z,1.10
2023-03-11T12:55:33.012Z,1.40
2023-03-11T12:58:38.134Z,1.20
2023-03-11T13:01:53.995Z,1.20
2023-03-11T13:05:31.882Z,1.15
2023-03-11T13:08:45.153Z,1.73
2023-03-11T13:11:49.117Z,1.17
2023-03-11T13:15:20.783Z,1.33
2023-03-11T13:18:28.364Z,1.62
2023-03-11T13:21:38.738Z,1.60
2023-03-11T13:24:49.731Z,1.52
2023-03-11T13:28:01.788Z,1.58
2023-03-11T13:31:37.532Z,1.45
2023-03-11T13:35:01.652Z,1.62
2023-03-11T13:38:22.913Z,1.80
2023-03-11T13:41:36.941Z,1.85
2023-03-11T13:44:41.660Z,1.55
2023-03-11T13:47:49.651Z,1.65
2023-03-11T13:51:14.406Z,1.90
2023-03-11T13:54:20.350Z,1.90
2023-03-11T13:57:32.049Z,1.58
2023-03-11T14:00:35.533Z,2.05
2023-03-11T14:03:42.375Z,1.77
2023-03-11T14:06:46.406Z,1.87
2023-03-11T14:09:49.229Z,1.33
2023-03-11T14:13:04.256Z,1.52
2023-03-11T14:16:17.274Z,2.00
2023-03-11T14:19:20.156Z,2.10
2023-03-11T14:22:23.000Z,1.65
2023-03-11T14:25:28.053Z,2.15
2023-03-11T14:28:35.244Z,1.73
2023-03-11T14:31:40.905Z,2.05
2023-03-11T14:34:45.946Z,2.03
2023-03-11T14:37:49.001Z,1.80
2023-03-11T14:41:05.255Z,1.92
2023-03-11T14:44:09.390Z,1.77
2023-03-11T14:47:43.540Z,2.15
2023-03-11T14:54:20.017Z,2.08
2023-03-11T14:57:42.863Z,1.80
2023-03-11T15:00:57.705Z,2.05
2023-03-11T15:04:12.452Z,2.40
2023-03-11T15:07:16.363Z,2.00
2023-03-11T15:10:19.238Z,2.60
2023-03-11T15:13:24.353Z,2.00
2023-03-11T15:16:31.670Z,2.17
2023-03-11T15:19:34.748Z,2.00
2023-03-11T15:22:37.525Z,3.22
2023-03-11T15:25:49.579Z,3.80
2023-03-11T15:29:04.453Z,2.10
2023-03-11T15:32:45.295Z,2.33
2023-03-11T15:35:49.256Z,2.00
2023-03-11T15:39:28.834Z,2.30
2023-03-11T15:42:31.612Z,2.20
2023-03-11T15:45:34.465Z,2.22
2023-03-11T15:48:37.427Z,2.10
2023-03-11T15:51:40.786Z,2.25
2023-03-11T15:54:54.477Z,2.08
2023-03-11T15:58:08.061Z,1.92
2023-03-11T16:01:10.871Z,2.03
2023-03-11T16:04:16.888Z,2.00
2023-03-11T16:07:32.833Z,2.10
2023-03-11T16:10:41.725Z,2.42
2023-03-11T16:13:44.576Z,2.25
2023-03-11T16:16:47.594Z,2.20
2023-03-11T16:19:51.267Z,1.98
2023-03-11T16:22:56.548Z,1.80
2023-03-11T16:26:02.249Z,8.38
2023-03-11T16:29:18.250Z,2.00
2023-03-11T16:32:21.864Z,1.55
2023-03-11T16:35:25.229Z,1.75
2023-03-11T16:41:42.257Z,1.50
2023-03-11T16:44:45.077Z,2.00
2023-03-11T16:47:47.889Z,1.80
2023-03-11T16:50:51.161Z,2.05
2023-03-11T16:53:55.166Z,1.92
2023-03-11T16:56:57.969Z,2.05
2023-03-11T17:00:01.082Z,2.40
2023-03-11T17:03:04.079Z,2.35
2023-03-11T17:06:07.106Z,2.10
2023-03-11T17:09:10.732Z,2.22
2023-03-11T17:12:15.827Z,2.05
2023-03-11T17:15:18.793Z,2.10
2023-03-11T17:18:21.661Z,2.67
2023-03-11T17:21:24.582Z,2.40
2023-03-11T17:24:27.520Z,2.05
2023-03-11T17:27:32.762Z,2.97
2023-03-11T17:30:37.412Z,2.50
2023-03-11T17:33:41.003Z,2.80
2023-03-11T17:36:43.905Z,2.47
2023-03-11T17:39:47.038Z,2.50
2023-03-11T17:42:50.671Z,2.85
2023-03-11T17:48:56.699Z,2.90
2023-03-11T17:51:59.609Z,2.97
2023-03-11T17:55:02.474Z,2.83
2023-03-11T17:58:07.191Z,3.00
2023-03-11T18:01:22.342Z,2.78
2023-03-11T18:04:25.663Z,2.75
2023-03-11T18:07:28.280Z,2.58
2023-03-11T18:10:31.526Z,2.92
2023-03-11T18:13:35.156Z,2.97
2023-03-11T18:16:38.984Z,3.17
2023-03-11T18:19:42.912Z,3.17
2023-03-11T18:22:46.843Z,3.05
2023-03-11T18:25:51.720Z,3.00
2023-03-11T18:28:59.840Z,3.30
2023-03-11T18:32:02.749Z,2.87
2023-03-11T18:38:08.859Z,2.90
2023-03-11T18:41:12.285Z,2.97
2023-03-11T18:44:14.858Z,2.80
2023-03-11T18:47:17.967Z,3.05
2023-03-11T18:50:20.973Z,3.07
2023-03-11T18:53:25.098Z,2.90
2023-03-11T18:59:30.900Z,2.70
2023-03-11T19:02:33.659Z,2.87
2023-03-11T19:05:37.038Z,3.15
2023-03-11T19:08:40.132Z,3.37
2023-03-11T19:11:43.313Z,3.00
2023-03-11T19:14:45.782Z,3.23
2023-03-11T19:18:00.579Z,3.58
2023-03-11T19:21:11.537Z,3.15
2023-03-11T19:24:14.972Z,3.60
2023-03-11T19:27:17.504Z,2.83
2023-03-11T19:30:21.872Z,2.92
2023-03-11T19:33:25.100Z,3.30
2023-03-11T19:36:28.467Z,4.30
2023-03-11T19:39:31.258Z,3.90
2023-03-11T19:42:34.539Z,3.05
2023-03-11T19:45:37.225Z,2.97
2023-03-11T19:48:40.435Z,3.80
2023-03-11T19:51:49.955Z,3.53
2023-03-11T19:54:54.495Z,3.50
2023-03-11T19:57:57.152Z,3.53
2023-03-11T20:01:02.141Z,3.08
2023-03-11T20:04:09.591Z,3.20
2023-03-11T20:07:17.277Z,4.15
2023-03-11T20:10:23.817Z,3.60
2023-03-11T20:13:26.874Z,3.95
2023-03-11T20:16:29.815Z,3.28
2023-03-11T20:19:32.801Z,3.72
2023-03-11T20:22:37.302Z,3.42
2023-03-11T20:25:41.824Z,3.37
2023-03-11T20:28:44.850Z,3.92
2023-03-11T20:31:48.058Z,3.62
2023-03-11T20:34:58.906Z,3.78
2023-03-11T20:38:03.086Z,3.50
2023-03-11T20:41:08.217Z,3.87
2023-03-11T20:44:14.444Z,3.37
2023-03-11T20:47:18.034Z,9.60
2023-03-11T20:50:21.788Z,4.57
2023-03-11T20:53:26.250Z,4.37
2023-03-11T20:56:29.490Z,3.70
2023-03-11T20:59:32.412Z,4.40
2023-03-11T21:02:35.704Z,3.92
2023-03-11T21:05:38.696Z,3.83
2023-03-11T21:08:41.742Z,3.70
2023-03-11T21:11:44.987Z,3.72
2023-03-11T21:14:47.755Z,3.15
2023-03-11T21:17:50.735Z,3.85
2023-03-11T21:20:53.585Z,3.53
2023-03-11T21:23:56.653Z,3.37
2023-03-11T21:26:59.888Z,4.10
2023-03-11T21:30:03.858Z,3.33
2023-03-11T21:33:06.921Z,3.55
2023-03-11T21:36:11.286Z,3.67
2023-03-11T21:39:15.501Z,3.20
2023-03-11T21:42:19.615Z,3.70
2023-03-11T21:45:22.455Z,3.60
2023-03-11T21:48:25.554Z,3.62
2023-03-11T21:51:29.071Z,3.53
2023-03-11T21:57:34.719Z,3.70
2023-03-11T22:00:37.700Z,3.20
2023-03-11T22:03:41.219Z,3.35
2023-03-11T22:06:43.957Z,4.00
2023-03-11T22:09:47.323Z,3.10
2023-03-11T22:12:50.096Z,3.60
2023-03-11T22:15:53.329Z,3.70
2023-03-11T22:18:55.971Z,6.13
2023-03-11T22:22:01.213Z,3.70
2023-03-11T22:25:05.099Z,3.13
2023-03-11T22:28:12.171Z,2.85
2023-03-11T22:31:15.676Z,3.28
2023-03-11T22:34:18.932Z,3.33
2023-03-11T22:37:21.473Z,3.43
2023-03-11T22:40:26.240Z,2.92
2023-03-11T22:43:28.779Z,3.05
2023-03-11T22:46:32.108Z,3.10
2023-03-11T22:49:34.826Z,3.35
2023-03-11T22:52:37.953Z,2.92
2023-03-11T22:55:41.556Z,2.80
2023-03-11T22:58:45.419Z,2.80
2023-03-11T23:01:47.951Z,3.30
2023-03-11T23:04:51.053Z,3.60
2023-03-11T23:07:53.664Z,3.20
2023-03-11T23:10:56.778Z,3.28
2023-03-11T23:13:59.807Z,3.10
2023-03-11T23:20:07.926Z,3.35
2023-03-11T23:23:14.422Z,3.42
2023-03-11T23:26:17.956Z,3.35
2023-03-11T23:29:21.109Z,3.53
2023-03-11T23:32:23.984Z,3.22
2023-03-11T23:38:30.045Z,3.25
2023-03-11T23:41:33.124Z,3.25
2023-03-11T23:44:35.708Z,3.25
2023-03-11T23:47:38.762Z,2.92
2023-03-11T23:50:51.464Z,3.62
2023-03-11T23:53:54.606Z,3.62
2023-03-11T23:56:57.119Z,3.30
